DLH7MH EDDS-EDXW
Flight info
| Callsign | DLH7MH |
|---|---|
| Flight time | 1h 5m |
| Altitude | 35000 |
| Route | EDDS/25 OKIBA4B OKIBA N851 RIMKI Z99 LOHRE DCT MASEK DCT ELNAT/N0458F360 DCT ELSOB/N0454F350 Y348 OMWEG DCT BADOS DCT OLDIP |
| Aircraft | A321/M-SDE3FGHIRWY/LB1 |
Departure
| Time | 2026-03-25 15:32 |
|---|---|
| Airport | Stuttgart Airport (EDDS) |
Arrival
| Time | 2026-03-25 16:38 |
|---|---|
| Airport | Westerland Sylt Airport (EDXW) |
| Time | Latitude | Longitude | Altitude | Speed | Heading |
|---|---|---|---|---|---|
| 2026-03-25 15:02 | 48.69122 | 9.20328 | 1289 ft | 0 kts | 345° |
| 2026-03-25 15:18 | 48.69111 | 9.20332 | 1290 ft | 3 kts | 345° |
| 2026-03-25 15:18 | 48.69093 | 9.20340 | 1291 ft | 3 kts | 345° |
| 2026-03-25 15:19 | 48.69075 | 9.20347 | 1291 ft | 3 kts | 345° |
| 2026-03-25 15:19 | 48.69057 | 9.20355 | 1290 ft | 3 kts | 345° |
| 2026-03-25 15:19 | 48.69039 | 9.20362 | 1290 ft | 3 kts | 345° |
| 2026-03-25 15:19 | 48.69029 | 9.20366 | 1289 ft | 0 kts | 345° |
| 2026-03-25 15:21 | 48.69031 | 9.20366 | 1289 ft | 1 kts | 347° |
| 2026-03-25 15:21 | 48.69039 | 9.20377 | 1288 ft | 5 kts | 34° |
| 2026-03-25 15:21 | 48.69056 | 9.20474 | 1285 ft | 13 kts | 107° |
| 2026-03-25 15:21 | 48.68996 | 9.20575 | 1288 ft | 14 kts | 134° |
| 2026-03-25 15:22 | 48.68966 | 9.20708 | 1285 ft | 14 kts | 76° |
| 2026-03-25 15:22 | 48.68993 | 9.20859 | 1289 ft | 15 kts | 72° |
| 2026-03-25 15:22 | 48.69025 | 9.21021 | 1289 ft | 17 kts | 75° |
| 2026-03-25 15:22 | 48.69059 | 9.21191 | 1285 ft | 17 kts | 75° |
| 2026-03-25 15:23 | 48.69090 | 9.21366 | 1285 ft | 18 kts | 75° |
| 2026-03-25 15:23 | 48.69127 | 9.21546 | 1288 ft | 18 kts | 72° |
| 2026-03-25 15:23 | 48.69161 | 9.21731 | 1285 ft | 18 kts | 73° |
| 2026-03-25 15:23 | 48.69195 | 9.21909 | 1287 ft | 18 kts | 76° |
| 2026-03-25 15:24 | 48.69227 | 9.22087 | 1288 ft | 18 kts | 75° |
| 2026-03-25 15:24 | 48.69261 | 9.22266 | 1285 ft | 18 kts | 73° |
| 2026-03-25 15:24 | 48.69295 | 9.22445 | 1287 ft | 18 kts | 74° |
| 2026-03-25 15:24 | 48.69328 | 9.22621 | 1285 ft | 17 kts | 74° |
| 2026-03-25 15:25 | 48.69360 | 9.22792 | 1286 ft | 16 kts | 74° |
| 2026-03-25 15:25 | 48.69392 | 9.22951 | 1285 ft | 15 kts | 73° |
| 2026-03-25 15:25 | 48.69420 | 9.23094 | 1285 ft | 13 kts | 75° |
| 2026-03-25 15:25 | 48.69444 | 9.23233 | 1287 ft | 15 kts | 75° |
| 2026-03-25 15:26 | 48.69479 | 9.23418 | 1285 ft | 19 kts | 73° |
| 2026-03-25 15:26 | 48.69554 | 9.23800 | 1288 ft | 21 kts | 74° |
| 2026-03-25 15:26 | 48.69591 | 9.23997 | 1285 ft | 18 kts | 74° |
| 2026-03-25 15:27 | 48.69602 | 9.24172 | 1285 ft | 16 kts | 109° |
| 2026-03-25 15:27 | 48.69541 | 9.24293 | 1285 ft | 14 kts | 156° |
| 2026-03-25 15:27 | 48.69518 | 9.24305 | 1286 ft | 0 kts | 162° |
| 2026-03-25 15:31 | 48.69514 | 9.24307 | 1286 ft | 3 kts | 162° |
| 2026-03-25 15:31 | 48.69482 | 9.24322 | 1288 ft | 7 kts | 162° |
| 2026-03-25 15:31 | 48.69427 | 9.24334 | 1287 ft | 9 kts | 181° |
| 2026-03-25 15:31 | 48.69384 | 9.24278 | 1285 ft | 8 kts | 247° |
| 2026-03-25 15:32 | 48.69339 | 9.24049 | 1286 ft | 54 kts | 254° |
| 2026-03-25 15:32 | 48.69174 | 9.23168 | 1290 ft | 118 kts | 255° |
| 2026-03-25 15:32 | 48.68918 | 9.21802 | 1572 ft | 145 kts | 252° |
| 2026-03-25 15:32 | 48.68618 | 9.20229 | 2078 ft | 163 kts | 254° |
| 2026-03-25 15:33 | 48.68300 | 9.18579 | 2843 ft | 162 kts | 256° |
| 2026-03-25 15:33 | 48.67968 | 9.16867 | 3231 ft | 177 kts | 256° |
| 2026-03-25 15:33 | 48.67608 | 9.15004 | 3386 ft | 198 kts | 256° |
| 2026-03-25 15:33 | 48.67199 | 9.12903 | 3773 ft | 216 kts | 256° |
| 2026-03-25 15:34 | 48.67082 | 9.10687 | 4657 ft | 213 kts | 285° |
| 2026-03-25 15:34 | 48.67806 | 9.08764 | 5488 ft | 218 kts | 303° |
| 2026-03-25 15:34 | 48.68816 | 9.07015 | 6313 ft | 223 kts | 317° |
| 2026-03-25 15:34 | 48.70288 | 9.05930 | 6667 ft | 250 kts | 335° |
| 2026-03-25 15:35 | 48.71969 | 9.05118 | 6750 ft | 257 kts | 338° |
| 2026-03-25 15:35 | 48.73784 | 9.04966 | 6759 ft | 270 kts | 5° |
| 2026-03-25 15:35 | 48.75524 | 9.06175 | 6757 ft | 285 kts | 33° |
| 2026-03-25 15:35 | 48.76781 | 9.08535 | 6758 ft | 297 kts | 59° |
| 2026-03-25 15:36 | 48.77637 | 9.11425 | 7348 ft | 302 kts | 63° |
| 2026-03-25 15:36 | 48.78447 | 9.14370 | 8133 ft | 304 kts | 62° |
| 2026-03-25 15:36 | 48.79598 | 9.17015 | 8876 ft | 300 kts | 40° |
| 2026-03-25 15:36 | 48.81098 | 9.19216 | 9619 ft | 302 kts | 38° |
| 2026-03-25 15:37 | 48.82625 | 9.21420 | 10057 ft | 316 kts | 38° |
| 2026-03-25 15:37 | 48.84289 | 9.23811 | 10227 ft | 339 kts | 39° |
| 2026-03-25 15:37 | 48.86024 | 9.26309 | 10626 ft | 351 kts | 39° |
| 2026-03-25 15:37 | 48.87766 | 9.28822 | 11222 ft | 355 kts | 38° |
| 2026-03-25 15:38 | 48.89773 | 9.31088 | 11850 ft | 354 kts | 25° |
| 2026-03-25 15:38 | 48.91995 | 9.32654 | 12490 ft | 352 kts | 13° |
| 2026-03-25 15:38 | 48.94330 | 9.33486 | 13153 ft | 348 kts | 1° |
| 2026-03-25 15:38 | 48.96741 | 9.33606 | 13775 ft | 346 kts | 351° |
| 2026-03-25 15:39 | 48.99152 | 9.33401 | 14358 ft | 349 kts | 351° |
| 2026-03-25 15:39 | 49.01592 | 9.33197 | 14969 ft | 352 kts | 352° |
| 2026-03-25 15:39 | 49.03993 | 9.33002 | 15553 ft | 356 kts | 352° |
| 2026-03-25 15:39 | 49.06474 | 9.32803 | 16143 ft | 359 kts | 352° |
| 2026-03-25 15:40 | 49.08978 | 9.32604 | 16747 ft | 362 kts | 352° |
| 2026-03-25 15:40 | 49.10686 | 9.32468 | 17151 ft | 364 kts | 352° |
| 2026-03-25 15:40 | 49.14058 | 9.32199 | 17917 ft | 369 kts | 352° |
| 2026-03-25 15:40 | 49.16631 | 9.31993 | 18427 ft | 372 kts | 353° |
| 2026-03-25 15:41 | 49.19226 | 9.31787 | 18942 ft | 375 kts | 353° |
| 2026-03-25 15:41 | 49.21805 | 9.31581 | 19429 ft | 379 kts | 352° |
| 2026-03-25 15:41 | 49.24406 | 9.31374 | 19886 ft | 383 kts | 352° |
| 2026-03-25 15:41 | 49.27081 | 9.31165 | 20352 ft | 386 kts | 352° |
| 2026-03-25 15:42 | 49.28866 | 9.31025 | 20653 ft | 389 kts | 352° |
| 2026-03-25 15:42 | 49.32496 | 9.30741 | 21263 ft | 393 kts | 352° |
| 2026-03-25 15:42 | 49.35214 | 9.30577 | 21693 ft | 399 kts | 356° |
| 2026-03-25 15:42 | 49.38012 | 9.30895 | 22166 ft | 405 kts | 1° |
| 2026-03-25 15:43 | 49.40823 | 9.31320 | 22692 ft | 407 kts | 1° |
| 2026-03-25 15:43 | 49.43649 | 9.31744 | 23146 ft | 410 kts | 1° |
| 2026-03-25 15:43 | 49.46498 | 9.32167 | 23537 ft | 413 kts | 1° |
| 2026-03-25 15:43 | 49.49368 | 9.32591 | 23897 ft | 416 kts | 1° |
| 2026-03-25 15:44 | 49.52259 | 9.33016 | 24252 ft | 419 kts | 0° |
| 2026-03-25 15:44 | 49.55174 | 9.33443 | 24612 ft | 422 kts | 0° |
| 2026-03-25 15:44 | 49.58102 | 9.33877 | 24962 ft | 424 kts | 0° |
| 2026-03-25 15:44 | 49.61047 | 9.34320 | 25327 ft | 427 kts | 1° |
| 2026-03-25 15:45 | 49.64011 | 9.34768 | 25681 ft | 430 kts | 1° |
| 2026-03-25 15:45 | 49.67003 | 9.35217 | 26012 ft | 432 kts | 0° |
| 2026-03-25 15:45 | 49.70002 | 9.35662 | 26327 ft | 435 kts | 0° |
| 2026-03-25 15:45 | 49.73020 | 9.36108 | 26651 ft | 438 kts | 0° |
| 2026-03-25 15:46 | 49.76058 | 9.36817 | 26950 ft | 445 kts | 8° |
| 2026-03-25 15:46 | 49.78246 | 9.37654 | 27172 ft | 448 kts | 9° |
| 2026-03-25 15:46 | 49.81088 | 9.38755 | 27464 ft | 450 kts | 9° |
| 2026-03-25 15:46 | 49.84139 | 9.39939 | 27783 ft | 454 kts | 9° |
| 2026-03-25 15:47 | 49.87210 | 9.41125 | 28082 ft | 456 kts | 9° |
| 2026-03-25 15:47 | 49.90294 | 9.42307 | 28379 ft | 459 kts | 9° |
| 2026-03-25 15:47 | 49.93411 | 9.43499 | 28675 ft | 461 kts | 9° |
| 2026-03-25 15:47 | 49.96534 | 9.44699 | 28955 ft | 464 kts | 9° |
| 2026-03-25 15:48 | 49.99677 | 9.45913 | 29231 ft | 467 kts | 8° |
| 2026-03-25 15:48 | 50.02840 | 9.47139 | 29517 ft | 469 kts | 8° |
| 2026-03-25 15:48 | 50.06018 | 9.48345 | 29793 ft | 470 kts | 6° |
| 2026-03-25 15:48 | 50.09244 | 9.49074 | 29997 ft | 468 kts | 0° |
| 2026-03-25 15:49 | 50.12487 | 9.49609 | 30199 ft | 470 kts | 0° |
| 2026-03-25 15:49 | 50.15742 | 9.50148 | 30409 ft | 471 kts | 1° |
| 2026-03-25 15:49 | 50.19009 | 9.50689 | 30601 ft | 473 kts | 1° |
| 2026-03-25 15:49 | 50.22284 | 9.51236 | 30787 ft | 474 kts | 1° |
| 2026-03-25 15:50 | 50.25574 | 9.51788 | 31013 ft | 474 kts | 1° |
| 2026-03-25 15:50 | 50.28852 | 9.52341 | 31287 ft | 474 kts | 1° |
| 2026-03-25 15:50 | 50.32128 | 9.52893 | 31537 ft | 474 kts | 1° |
| 2026-03-25 15:50 | 50.35406 | 9.53449 | 31789 ft | 474 kts | 1° |
| 2026-03-25 15:51 | 50.38691 | 9.54009 | 32038 ft | 473 kts | 1° |
| 2026-03-25 15:51 | 50.41963 | 9.54566 | 32271 ft | 473 kts | 1° |
| 2026-03-25 15:51 | 50.45238 | 9.55121 | 32516 ft | 473 kts | 1° |
| 2026-03-25 15:51 | 50.48467 | 9.55665 | 32747 ft | 473 kts | 1° |
| 2026-03-25 15:52 | 50.51742 | 9.56217 | 32990 ft | 473 kts | 1° |
| 2026-03-25 15:52 | 50.55019 | 9.56770 | 33191 ft | 473 kts | 1° |
| 2026-03-25 15:52 | 50.58292 | 9.57329 | 33404 ft | 474 kts | 1° |
| 2026-03-25 15:52 | 50.61570 | 9.57893 | 33624 ft | 474 kts | 1° |
| 2026-03-25 15:53 | 50.64848 | 9.58458 | 33813 ft | 474 kts | 1° |
| 2026-03-25 15:53 | 50.68124 | 9.59022 | 34000 ft | 473 kts | 1° |
| 2026-03-25 15:53 | 50.71391 | 9.59579 | 34168 ft | 473 kts | 1° |
| 2026-03-25 15:53 | 50.74662 | 9.60139 | 34363 ft | 472 kts | 2° |
| 2026-03-25 15:54 | 50.77925 | 9.60736 | 34555 ft | 472 kts | 2° |
| 2026-03-25 15:54 | 50.81191 | 9.61369 | 34654 ft | 471 kts | 2° |
| 2026-03-25 15:54 | 50.87648 | 9.62668 | 34676 ft | 466 kts | 2° |
| 2026-03-25 15:55 | 50.94069 | 9.63941 | 34701 ft | 465 kts | 2° |
| 2026-03-25 15:55 | 51.00499 | 9.65196 | 34683 ft | 465 kts | 2° |
| 2026-03-25 15:56 | 51.06927 | 9.66452 | 34678 ft | 465 kts | 2° |
| 2026-03-25 15:56 | 51.13359 | 9.67707 | 34680 ft | 465 kts | 2° |
| 2026-03-25 15:57 | 51.19798 | 9.68939 | 34703 ft | 464 kts | 359° |
| 2026-03-25 15:57 | 51.26167 | 9.68847 | 34693 ft | 461 kts | 354° |
| 2026-03-25 15:58 | 51.32583 | 9.68570 | 34688 ft | 461 kts | 354° |
| 2026-03-25 15:58 | 51.38999 | 9.68294 | 34682 ft | 461 kts | 354° |
| 2026-03-25 15:59 | 51.45411 | 9.68014 | 34696 ft | 461 kts | 354° |
| 2026-03-25 15:59 | 51.51839 | 9.67740 | 34691 ft | 462 kts | 354° |
| 2026-03-25 16:00 | 51.58264 | 9.67471 | 34691 ft | 462 kts | 354° |
| 2026-03-25 16:00 | 51.64684 | 9.67188 | 34689 ft | 461 kts | 354° |
| 2026-03-25 16:01 | 51.71098 | 9.66903 | 34703 ft | 461 kts | 354° |
| 2026-03-25 16:01 | 51.77511 | 9.66617 | 34696 ft | 461 kts | 354° |
| 2026-03-25 16:02 | 51.83878 | 9.66326 | 34684 ft | 461 kts | 354° |
| 2026-03-25 16:03 | 51.93495 | 9.65896 | 34681 ft | 461 kts | 354° |
| 2026-03-25 16:03 | 51.99905 | 9.65609 | 34673 ft | 461 kts | 354° |
| 2026-03-25 16:04 | 52.06315 | 9.65335 | 34670 ft | 461 kts | 354° |
| 2026-03-25 16:04 | 52.12730 | 9.65055 | 34669 ft | 461 kts | 354° |
| 2026-03-25 16:05 | 52.19142 | 9.64746 | 34682 ft | 461 kts | 354° |
| 2026-03-25 16:05 | 52.25563 | 9.64448 | 34683 ft | 462 kts | 354° |
| 2026-03-25 16:06 | 52.31995 | 9.64164 | 34684 ft | 462 kts | 354° |
| 2026-03-25 16:06 | 52.38429 | 9.63877 | 34706 ft | 462 kts | 354° |
| 2026-03-25 16:07 | 52.44853 | 9.63595 | 34698 ft | 462 kts | 354° |
| 2026-03-25 16:07 | 52.51288 | 9.63299 | 34694 ft | 462 kts | 354° |
| 2026-03-25 16:08 | 52.57712 | 9.62993 | 34687 ft | 462 kts | 354° |
| 2026-03-25 16:08 | 52.64103 | 9.62706 | 34691 ft | 462 kts | 354° |
| 2026-03-25 16:09 | 52.70579 | 9.62414 | 34672 ft | 462 kts | 354° |
| 2026-03-25 16:09 | 52.76965 | 9.62119 | 34647 ft | 462 kts | 354° |
| 2026-03-25 16:10 | 52.83430 | 9.61815 | 34645 ft | 462 kts | 354° |
| 2026-03-25 16:10 | 52.89806 | 9.61512 | 34655 ft | 462 kts | 354° |
| 2026-03-25 16:11 | 52.96230 | 9.61212 | 34645 ft | 462 kts | 355° |
| 2026-03-25 16:11 | 53.02662 | 9.60923 | 34643 ft | 462 kts | 355° |
| 2026-03-25 16:12 | 53.09094 | 9.60628 | 34638 ft | 462 kts | 354° |
| 2026-03-25 16:12 | 53.15540 | 9.60320 | 34562 ft | 465 kts | 355° |
| 2026-03-25 16:12 | 53.18798 | 9.60163 | 33804 ft | 471 kts | 354° |
| 2026-03-25 16:13 | 53.22080 | 9.60005 | 33014 ft | 472 kts | 354° |
| 2026-03-25 16:13 | 53.25359 | 9.59852 | 32372 ft | 470 kts | 355° |
| 2026-03-25 16:13 | 53.28614 | 9.59705 | 31804 ft | 466 kts | 355° |
| 2026-03-25 16:13 | 53.31839 | 9.59557 | 31271 ft | 462 kts | 355° |
| 2026-03-25 16:14 | 53.35041 | 9.59407 | 30757 ft | 458 kts | 354° |
| 2026-03-25 16:14 | 53.38220 | 9.59254 | 30254 ft | 455 kts | 354° |
| 2026-03-25 16:14 | 53.41369 | 9.59103 | 29735 ft | 451 kts | 354° |
| 2026-03-25 16:14 | 53.44500 | 9.58953 | 29105 ft | 447 kts | 354° |
| 2026-03-25 16:15 | 53.47590 | 9.58805 | 28537 ft | 443 kts | 354° |
| 2026-03-25 16:15 | 53.50654 | 9.58659 | 27972 ft | 437 kts | 354° |
| 2026-03-25 16:15 | 53.53638 | 9.58520 | 27496 ft | 431 kts | 353° |
| 2026-03-25 16:15 | 53.56625 | 9.58381 | 26915 ft | 427 kts | 353° |
| 2026-03-25 16:16 | 53.59575 | 9.58245 | 26458 ft | 421 kts | 353° |
| 2026-03-25 16:16 | 53.62478 | 9.58112 | 26049 ft | 414 kts | 352° |
| 2026-03-25 16:16 | 53.65336 | 9.57934 | 25612 ft | 405 kts | 348° |
| 2026-03-25 16:16 | 53.68096 | 9.57325 | 25182 ft | 396 kts | 345° |
| 2026-03-25 16:17 | 53.70807 | 9.56692 | 24762 ft | 391 kts | 345° |
| 2026-03-25 16:17 | 53.73484 | 9.56071 | 24331 ft | 386 kts | 345° |
| 2026-03-25 16:17 | 53.76132 | 9.55454 | 23901 ft | 381 kts | 345° |
| 2026-03-25 16:17 | 53.78750 | 9.54841 | 23466 ft | 377 kts | 344° |
| 2026-03-25 16:18 | 53.81333 | 9.54233 | 23008 ft | 373 kts | 344° |
| 2026-03-25 16:18 | 53.83890 | 9.53636 | 22542 ft | 367 kts | 344° |
| 2026-03-25 16:18 | 53.86401 | 9.53056 | 22110 ft | 362 kts | 344° |
| 2026-03-25 16:18 | 53.88876 | 9.52481 | 21669 ft | 356 kts | 346° |
| 2026-03-25 16:19 | 53.91314 | 9.51910 | 21237 ft | 350 kts | 346° |
| 2026-03-25 16:19 | 53.93677 | 9.51356 | 20825 ft | 344 kts | 346° |
| 2026-03-25 16:19 | 53.96033 | 9.50797 | 20408 ft | 339 kts | 346° |
| 2026-03-25 16:19 | 53.98350 | 9.50243 | 19989 ft | 333 kts | 345° |
| 2026-03-25 16:20 | 54.00557 | 9.49320 | 19590 ft | 321 kts | 334° |
| 2026-03-25 16:20 | 54.02538 | 9.47737 | 19200 ft | 309 kts | 324° |
| 2026-03-25 16:20 | 54.04379 | 9.45912 | 18828 ft | 304 kts | 324° |
| 2026-03-25 16:20 | 54.06196 | 9.44120 | 18459 ft | 299 kts | 324° |
| 2026-03-25 16:21 | 54.07982 | 9.42364 | 18075 ft | 294 kts | 324° |
| 2026-03-25 16:21 | 54.09745 | 9.40627 | 17699 ft | 290 kts | 324° |
| 2026-03-25 16:21 | 54.11473 | 9.38919 | 17312 ft | 284 kts | 324° |
| 2026-03-25 16:21 | 54.13168 | 9.37247 | 16959 ft | 279 kts | 324° |
| 2026-03-25 16:22 | 54.14834 | 9.35601 | 16623 ft | 274 kts | 324° |
| 2026-03-25 16:22 | 54.16480 | 9.33975 | 16271 ft | 272 kts | 324° |
| 2026-03-25 16:22 | 54.18109 | 9.32365 | 15924 ft | 270 kts | 324° |
| 2026-03-25 16:22 | 54.19733 | 9.30759 | 15583 ft | 268 kts | 324° |
| 2026-03-25 16:23 | 54.21345 | 9.29162 | 15244 ft | 267 kts | 324° |
| 2026-03-25 16:23 | 54.22944 | 9.27573 | 14911 ft | 265 kts | 324° |
| 2026-03-25 16:23 | 54.24534 | 9.25991 | 14579 ft | 264 kts | 324° |
| 2026-03-25 16:23 | 54.26095 | 9.24434 | 14252 ft | 262 kts | 324° |
| 2026-03-25 16:24 | 54.27668 | 9.22871 | 13931 ft | 261 kts | 324° |
| 2026-03-25 16:24 | 54.29252 | 9.21296 | 13591 ft | 259 kts | 324° |
| 2026-03-25 16:24 | 54.30804 | 9.19746 | 13248 ft | 258 kts | 324° |
| 2026-03-25 16:24 | 54.32346 | 9.18202 | 12914 ft | 256 kts | 324° |
| 2026-03-25 16:25 | 54.33863 | 9.16688 | 12582 ft | 255 kts | 324° |
| 2026-03-25 16:25 | 54.35411 | 9.15143 | 12245 ft | 253 kts | 324° |
| 2026-03-25 16:25 | 54.36878 | 9.13578 | 11912 ft | 249 kts | 318° |
| 2026-03-25 16:25 | 54.38140 | 9.11599 | 11603 ft | 243 kts | 311° |
| 2026-03-25 16:26 | 54.39321 | 9.09541 | 11272 ft | 239 kts | 311° |
| 2026-03-25 16:26 | 54.40484 | 9.07522 | 10960 ft | 236 kts | 311° |
| 2026-03-25 16:26 | 54.41632 | 9.05532 | 10668 ft | 233 kts | 311° |
| 2026-03-25 16:27 | 54.44049 | 9.01314 | 9985 ft | 283 kts | 311° |
| 2026-03-25 16:27 | 54.45471 | 8.98829 | 9583 ft | 296 kts | 311° |
| 2026-03-25 16:27 | 54.46927 | 8.96300 | 9162 ft | 297 kts | 312° |
| 2026-03-25 16:27 | 54.48390 | 8.93761 | 8757 ft | 309 kts | 312° |
| 2026-03-25 16:28 | 54.49932 | 8.91078 | 8328 ft | 319 kts | 312° |
| 2026-03-25 16:28 | 54.51495 | 8.88360 | 7896 ft | 319 kts | 313° |
| 2026-03-25 16:28 | 54.53045 | 8.85661 | 7455 ft | 316 kts | 313° |
| 2026-03-25 16:28 | 54.54585 | 8.82974 | 7038 ft | 314 kts | 313° |
| 2026-03-25 16:29 | 54.56100 | 8.80326 | 6632 ft | 313 kts | 313° |
| 2026-03-25 16:29 | 54.57620 | 8.77660 | 6213 ft | 311 kts | 313° |
| 2026-03-25 16:29 | 54.59149 | 8.74970 | 5784 ft | 309 kts | 313° |
| 2026-03-25 16:29 | 54.60630 | 8.72361 | 5369 ft | 307 kts | 313° |
| 2026-03-25 16:30 | 54.62178 | 8.69822 | 4954 ft | 307 kts | 319° |
| 2026-03-25 16:30 | 54.63874 | 8.67687 | 4662 ft | 293 kts | 323° |
| 2026-03-25 16:30 | 54.65512 | 8.65771 | 4515 ft | 275 kts | 323° |
| 2026-03-25 16:30 | 54.67030 | 8.63936 | 4379 ft | 257 kts | 322° |
| 2026-03-25 16:31 | 54.68403 | 8.62258 | 4243 ft | 228 kts | 322° |
| 2026-03-25 16:31 | 54.69242 | 8.61230 | 4149 ft | 210 kts | 322° |
| 2026-03-25 16:31 | 54.70762 | 8.59367 | 4017 ft | 197 kts | 321° |
| 2026-03-25 16:31 | 54.71840 | 8.58049 | 3878 ft | 183 kts | 321° |
| 2026-03-25 16:32 | 54.72534 | 8.57198 | 3789 ft | 181 kts | 321° |
| 2026-03-25 16:32 | 54.73888 | 8.55538 | 3614 ft | 178 kts | 321° |
| 2026-03-25 16:32 | 54.74544 | 8.54735 | 3542 ft | 163 kts | 321° |
| 2026-03-25 16:32 | 54.75412 | 8.53674 | 3404 ft | 144 kts | 320° |
| 2026-03-25 16:33 | 54.76212 | 8.52690 | 3285 ft | 139 kts | 320° |
| 2026-03-25 16:33 | 54.76998 | 8.51723 | 3151 ft | 138 kts | 320° |
| 2026-03-25 16:33 | 54.77774 | 8.50768 | 3085 ft | 137 kts | 320° |
| 2026-03-25 16:33 | 54.78551 | 8.49813 | 2964 ft | 137 kts | 320° |
| 2026-03-25 16:34 | 54.79326 | 8.48860 | 2803 ft | 136 kts | 320° |
| 2026-03-25 16:34 | 54.80095 | 8.47913 | 2620 ft | 136 kts | 321° |
| 2026-03-25 16:34 | 54.80864 | 8.46967 | 2444 ft | 135 kts | 320° |
| 2026-03-25 16:34 | 54.81631 | 8.46023 | 2258 ft | 135 kts | 320° |
| 2026-03-25 16:35 | 54.82396 | 8.45080 | 2072 ft | 135 kts | 320° |
| 2026-03-25 16:35 | 54.83159 | 8.44139 | 1880 ft | 135 kts | 320° |
| 2026-03-25 16:35 | 54.83922 | 8.43199 | 1700 ft | 134 kts | 319° |
| 2026-03-25 16:35 | 54.84681 | 8.42263 | 1519 ft | 134 kts | 319° |
| 2026-03-25 16:36 | 54.85437 | 8.41329 | 1341 ft | 133 kts | 319° |
| 2026-03-25 16:36 | 54.86192 | 8.40397 | 1145 ft | 133 kts | 319° |
| 2026-03-25 16:36 | 54.86947 | 8.39464 | 938 ft | 134 kts | 319° |
| 2026-03-25 16:36 | 54.87702 | 8.38531 | 744 ft | 132 kts | 319° |
| 2026-03-25 16:37 | 54.88454 | 8.37601 | 554 ft | 133 kts | 320° |
| 2026-03-25 16:37 | 54.89202 | 8.36672 | 379 ft | 133 kts | 319° |
| 2026-03-25 16:37 | 54.89953 | 8.35726 | 216 ft | 135 kts | 320° |
| 2026-03-25 16:37 | 54.90719 | 8.34819 | 65 ft | 132 kts | 311° |
| 2026-03-25 16:38 | 54.91277 | 8.34057 | 57 ft | 54 kts | 320° |
| 2026-03-25 16:38 | 54.91518 | 8.33770 | 57 ft | 33 kts | 328° |
| 2026-03-25 16:38 | 54.91698 | 8.33563 | 58 ft | 29 kts | 327° |
| 2026-03-25 16:38 | 54.91846 | 8.33391 | 56 ft | 14 kts | 325° |
| 2026-03-25 16:39 | 54.91882 | 8.33261 | 50 ft | 13 kts | 242° |
| 2026-03-25 16:39 | 54.91798 | 8.33183 | 56 ft | 15 kts | 195° |
| 2026-03-25 16:39 | 54.91691 | 8.33177 | 58 ft | 16 kts | 179° |
| 2026-03-25 16:39 | 54.91572 | 8.33176 | 56 ft | 18 kts | 180° |
| 2026-03-25 16:40 | 54.91493 | 8.33179 | 52 ft | 9 kts | 173° |
| 2026-03-25 16:40 | 54.91432 | 8.33228 | 53 ft | 11 kts | 152° |
| 2026-03-25 16:40 | 54.91354 | 8.33248 | 52 ft | 13 kts | 182° |
| 2026-03-25 16:40 | 54.91312 | 8.33142 | 55 ft | 11 kts | 269° |
| 2026-03-25 16:41 | 54.91312 | 8.33102 | 58 ft | 0 kts | 269° |